Borisov, Bielorrusia

1:26 PM MSK en Noviembre 27, 2014 (GMT +0300)
Minsk-2 | Change Station
CLOSE
Current Station
Aeropuerto
Location: Minsk In-Min,
Altura: 669 ft
Estaciones meteorológicas cercanas

Alt 669 ft 53.88 °N, 28.03 °E | Updated 26 minutes ago

Light Snow
Débil nevada
19 ° F
Sensación térmica 11 ° F
N
7
Viento Variable Viento desde ESE

Hoy
Alta -- | Baja -- ° F
--% Posibilidad de precipitaciones
Ayer
Alta -- | Baja -- ° F
Precip. -- pul
8:56 AM 4:50 PM
Creciente, 28% visible
Presión 30.36 pul
Visibilidad -9999.0 Millas
Nubes Nublado 900 ft
Vientos helados 11 ° F
Punto de rocío 16 ° F
Humedad 86%
Precipitaciones 0.00 pul
Espesor de la nieve No disponible.
UV 0 de una escala de 12
Polen No disponible.
Calidad del aire No disponible.
Flu Activity No disponible.
METAR UMMS 271000Z 12003MPS 4900 -SN BR OVC009 M07/M09 Q1028 R13/810355 NOSIG

More Conditions Fewer Conditions

Presión 30.36 pul
Visibilidad -9999.0 Millas
Nubes Nublado 900 ft
Vientos helados 11 ° F
Punto de rocío 16 ° F
Humedad 86%
Precipitaciones 0.00 pul
Espesor de la nieve No disponible.
UV 0 de una escala de 12
Polen No disponible.
Calidad del aire No disponible.
Flu Activity No disponible.
METAR UMMS 271000Z 12003MPS 4900 -SN BR OVC009 M07/M09 Q1028 R13/810355 NOSIG

More Conditions Fewer Conditions

10-Day Weather Forecast

Almanac

Astronomía

Nov. 27, 2014 Salida Puesta
Hora real
Crepúsculo civil
Crepúsculo náutico
Crepúsculo astronómico
Luna
Horas de luz
Horas de luz
Tomorrow will be .
, % of the Moon is Illuminated

Extremos de hoy

Máximos del país Bajas del país

Community

WunderPhotos

Upload Photos

1,773,968 ¡fotos cargadas!

WunderBlogs® & News

Nearby

Calidad del aire

  Calidad del aire Índice AQ Contaminante
Not available.

Grosos de nieve

Estación Profundido Altura

Actividad de terremotos

Ciudad Distance Mag. Tiempo y dato
Magnitud mínima muestra es 2,5.

Temperaturas de aguas costeras

Lugar Temperatura

Estaciones meteorológicas cercanas